Time;durP1;ratioP1;P1;durP2;ratioP2;P2;SDS_P1;SDS_P2;PMS_P1;PMS_P2;Temp;Humidity;BMP_temperature;BMP_pressure;BME280_temperature;BME280_humidity;BME280_pressure;Samples;Min_cycle;Max_cycle;Signal;HPM_P1;HPM_P2
2022/05/11 00:00:18;;;;;;;7.95;7.35;;;;;;;12.85;100.00;98885.44;5004260;28;20037;-61
2022/05/11 00:02:44;;;;;;;9.18;7.28;;;;;;;12.91;100.00;98874.97;5001243;28;20579;-61
2022/05/11 00:05:12;;;;;;;8.85;7.88;;;;;;;12.94;100.00;98876.66;5000853;28;20029;-61
2022/05/11 00:07:37;;;;;;;8.38;7.72;;;;;;;12.76;100.00;98877.94;5001343;28;20042;-62
2022/05/11 00:10:11;;;;;;;9.38;7.93;;;;;;;12.66;100.00;98882.44;5003343;28;20165;-62
2022/05/11 00:12:38;;;;;;;8.77;7.85;;;;;;;12.51;100.00;98872.50;4998647;28;20310;-62
2022/05/11 00:15:04;;;;;;;8.93;8.13;;;;;;;12.50;100.00;98873.38;4998737;28;20117;-62
2022/05/11 00:17:29;;;;;;;11.25;10.10;;;;;;;12.46;100.00;98869.19;5002849;28;20113;-62
2022/05/11 00:19:55;;;;;;;9.32;8.13;;;;;;;12.46;100.00;98861.47;5003302;28;20499;-62
2022/05/11 00:22:20;;;;;;;9.02;7.72;;;;;;;12.51;100.00;98867.38;4998831;28;20056;-62
2022/05/11 00:24:46;;;;;;;8.20;7.40;;;;;;;12.48;100.00;98870.00;5000897;28;20040;-62
2022/05/11 00:27:11;;;;;;;8.60;7.70;;;;;;;12.44;100.00;98867.53;5002688;28;20037;-62
2022/05/11 00:29:36;;;;;;;8.77;7.97;;;;;;;12.42;100.00;98867.56;5000540;28;20117;-61
2022/05/11 00:32:02;;;;;;;8.38;7.57;;;;;;;12.36;100.00;98871.13;4996900;28;20390;-62
2022/05/11 00:34:27;;;;;;;9.23;8.07;;;;;;;12.42;100.00;98865.00;4999365;28;20026;-61
2022/05/11 00:36:53;;;;;;;9.40;7.30;;;;;;;12.30;100.00;98860.13;5003722;28;20033;-62
2022/05/11 00:39:19;;;;;;;8.63;7.63;;;;;;;12.22;100.00;98856.91;5002213;28;20383;-62
2022/05/11 00:41:44;;;;;;;8.43;7.63;;;;;;;12.17;100.00;98866.44;4999015;28;20029;-62
2022/05/11 00:44:10;;;;;;;8.90;7.70;;;;;;;12.08;100.00;98866.63;5000448;28;20041;-62
2022/05/11 00:46:35;;;;;;;10.23;8.10;;;;;;;12.07;100.00;98858.06;5001446;28;20034;-61
2022/05/11 00:51:53;;;;;;;9.57;8.23;;;;;;;11.91;100.00;98856.69;4999531;28;20038;-62
2022/05/11 00:54:22;;;;;;;8.18;7.35;;;;;;;11.88;100.00;98855.00;5000739;28;20117;-62
2022/05/11 00:56:56;;;;;;;9.27;7.63;;;;;;;12.01;100.00;98857.34;5001572;28;20449;-62
2022/05/11 00:59:25;;;;;;;9.25;7.40;;;;;;;12.12;100.00;98855.38;4999441;28;20061;-62
2022/05/11 01:01:51;;;;;;;7.70;7.05;;;;;;;12.27;100.00;98848.19;5000035;28;20341;-60
2022/05/11 01:04:20;;;;;;;8.05;7.25;;;;;;;12.45;100.00;98851.22;5002187;28;20040;-62
2022/05/11 01:06:46;;;;;;;10.30;7.35;;;;;;;12.45;100.00;98849.50;4999264;28;20912;-62
2022/05/11 01:09:13;;;;;;;8.95;7.47;;;;;;;12.47;100.00;98847.75;5000073;28;20037;-61
2022/05/11 01:11:48;;;;;;;9.80;6.97;;;;;;;12.41;100.00;98847.88;4998488;28;20026;-62
2022/05/11 01:14:17;;;;;;;7.55;6.85;;;;;;;12.51;100.00;98840.81;5000719;28;20152;-62
2022/05/11 01:16:43;;;;;;;7.97;7.07;;;;;;;12.48;100.00;98843.41;4998124;28;20466;-62
2022/05/11 01:19:15;;;;;;;8.05;7.28;;;;;;;12.53;100.00;98842.44;4999664;28;20040;-61
2022/05/11 01:21:49;;;;;;;7.03;6.40;;;;;;;12.60;100.00;98843.16;5000608;28;20056;-61
2022/05/11 01:24:39;;;;;;;8.35;7.45;;;;;;;12.54;100.00;98846.72;4999540;28;20100;-62
2022/05/11 01:27:23;;;;;;;8.73;7.88;;;;;;;12.47;100.00;98850.31;4998284;28;20033;-62
2022/05/11 01:29:49;;;;;;;9.38;7.05;;;;;;;12.38;100.00;98850.53;5003047;28;20125;-62
2022/05/11 01:32:14;;;;;;;7.55;6.90;;;;;;;12.31;100.00;98848.94;5000297;28;20064;-62
2022/05/11 01:34:40;;;;;;;7.60;7.00;;;;;;;12.30;100.00;98855.84;4998718;28;20461;-62
2022/05/11 01:37:06;;;;;;;8.40;7.35;;;;;;;12.28;100.00;98849.88;4998673;28;20029;-62
2022/05/11 01:39:31;;;;;;;7.90;6.65;;;;;;;12.43;100.00;98861.56;5001915;28;20036;-62
2022/05/11 01:41:57;;;;;;;7.55;6.45;;;;;;;12.57;100.00;98848.34;5000516;28;20043;-62
2022/05/11 01:44:23;;;;;;;8.80;7.38;;;;;;;12.54;100.00;98845.88;4997835;28;20036;-62
2022/05/11 01:46:51;;;;;;;7.32;6.63;;;;;;;12.52;100.00;98853.59;4997696;28;20033;-62
2022/05/11 01:49:18;;;;;;;7.25;6.55;;;;;;;12.42;100.00;98853.88;5001029;28;20595;-62
2022/05/11 01:51:44;;;;;;;8.00;7.28;;;;;;;12.36;100.00;98849.69;5000331;28;20038;-62
2022/05/11 01:54:11;;;;;;;7.68;6.97;;;;;;;12.26;100.00;98855.94;4998617;28;20309;-61
2022/05/11 01:56:36;;;;;;;7.68;6.97;;;;;;;12.18;100.00;98852.66;5000183;28;20490;-62
2022/05/11 01:59:02;;;;;;;8.50;7.70;;;;;;;12.27;100.00;98855.03;5001678;28;20034;-62
2022/05/11 02:01:29;;;;;;;8.45;7.00;;;;;;;12.26;100.00;98853.38;5000757;28;20037;-62
2022/05/11 02:03:56;;;;;;;8.05;7.30;;;;;;;12.25;100.00;98855.09;5001233;28;20025;-62
2022/05/11 02:09:10;;;;;;;7.10;6.40;;;;;;;12.29;100.00;98843.00;4924887;29;20486;-60
2022/05/11 02:11:35;;;;;;;7.35;6.68;;;;;;;12.24;100.00;98852.56;4922968;29;20226;-61
2022/05/11 02:14:02;;;;;;;8.93;7.10;;;;;;;12.13;100.00;98851.94;4922246;29;20039;-62
2022/05/11 02:16:27;;;;;;;8.55;6.53;;;;;;;12.17;100.00;98858.72;4925512;29;20059;-64
2022/05/11 02:18:55;;;;;;;14.18;7.25;;;;;;;12.24;100.00;98849.97;4926094;29;20627;-61
2022/05/11 02:21:21;;;;;;;7.70;6.65;;;;;;;12.31;100.00;98846.38;4923933;29;20131;-62
2022/05/11 02:23:50;;;;;;;7.53;6.88;;;;;;;12.29;100.00;98841.28;4924819;29;20536;-62
2022/05/11 02:26:16;;;;;;;7.80;6.55;;;;;;;12.25;100.00;98859.38;4928140;29;20058;-61
2022/05/11 02:28:42;;;;;;;10.15;7.57;;;;;;;12.18;100.00;98855.25;4926901;29;20043;-62
2022/05/11 02:31:08;;;;;;;7.43;6.43;;;;;;;12.05;100.00;98852.09;4924022;29;20028;-62
2022/05/11 02:33:34;;;;;;;6.85;6.25;;;;;;;11.98;100.00;98847.13;4925399;29;20442;-61
2022/05/11 02:35:59;;;;;;;9.27;8.07;;;;;;;11.88;100.00;98852.44;4929043;29;20032;-60
2022/05/11 02:38:30;;;;;;;15.02;7.45;;;;;;;11.80;100.00;98854.34;4926629;29;20054;-61
2022/05/11 02:40:56;;;;;;;8.25;7.55;;;;;;;11.82;100.00;98855.16;4924550;29;20036;-61
2022/05/11 02:43:22;;;;;;;7.47;6.75;;;;;;;11.72;100.00;98848.50;4925526;29;20035;-60
2022/05/11 02:45:49;;;;;;;9.18;7.40;;;;;;;11.71;100.00;98857.03;4946983;28;20038;-61
2022/05/11 02:48:18;;;;;;;7.18;6.47;;;;;;;11.67;100.00;98844.31;4984433;28;20049;-61
2022/05/11 02:50:46;;;;;;;7.80;7.03;;;;;;;11.69;100.00;98856.25;4983446;28;20030;-61
2022/05/11 02:53:13;;;;;;;8.63;7.00;;;;;;;11.63;100.00;98846.09;4983402;28;20578;-61
2022/05/11 02:55:42;;;;;;;7.32;6.72;;;;;;;11.67;100.00;98840.00;4986456;28;20055;-61
2022/05/11 02:58:08;;;;;;;7.80;7.10;;;;;;;11.66;100.00;98846.03;4981482;28;20038;-61
2022/05/11 03:00:36;;;;;;;7.57;6.88;;;;;;;11.68;100.00;98844.28;4982087;28;20516;-62
2022/05/11 03:03:04;;;;;;;7.55;6.85;;;;;;;11.69;100.00;98840.84;4984586;28;20464;-62
2022/05/11 03:05:30;;;;;;;7.95;7.25;;;;;;;11.63;100.00;98840.09;4982780;28;20911;-54
2022/05/11 03:07:55;;;;;;;7.53;6.93;;;;;;;11.82;100.00;98846.59;4980440;28;20034;-60
2022/05/11 03:10:21;;;;;;;7.65;6.93;;;;;;;11.79;100.00;98846.69;4982303;28;20034;-59
2022/05/11 03:12:46;;;;;;;6.85;6.28;;;;;;;11.90;100.00;98850.72;4984463;28;20441;-55
2022/05/11 03:15:12;;;;;;;7.50;6.80;;;;;;;11.93;100.00;98848.94;4987264;28;20117;-59
2022/05/11 03:17:37;;;;;;;7.82;6.97;;;;;;;12.05;100.00;98846.94;4999943;28;20484;-59
2022/05/11 03:20:05;;;;;;;7.85;6.32;;;;;;;12.00;100.00;98845.38;5001956;28;20034;-55
2022/05/11 03:22:30;;;;;;;7.82;7.07;;;;;;;11.90;100.00;98847.28;5000825;28;20034;-55
2022/05/11 03:24:55;;;;;;;7.63;6.82;;;;;;;11.78;100.00;98850.13;5003468;28;20099;-53
2022/05/11 03:27:21;;;;;;;9.38;8.27;;;;;;;11.73;100.00;98844.22;4999923;28;20026;-58
2022/05/11 03:29:47;;;;;;;8.40;6.88;;;;;;;11.64;100.00;98837.50;4999756;28;20038;-59
2022/05/11 03:34:56;;;;;;;8.75;6.95;;;;;;;11.78;100.00;98844.97;5000053;28;20077;-59
2022/05/11 03:37:22;;;;;;;8.35;7.53;;;;;;;11.76;100.00;98839.00;4997371;28;20420;-61
2022/05/11 03:39:48;;;;;;;7.35;6.75;;;;;;;11.73;100.00;98844.22;4999781;28;20460;-61
2022/05/11 03:42:17;;;;;;;7.20;6.50;;;;;;;11.68;100.00;98840.84;5000856;28;20038;-59
2022/05/11 03:44:42;;;;;;;7.15;6.45;;;;;;;11.69;100.00;98848.53;5000899;28;20550;-60
2022/05/11 03:47:08;;;;;;;8.18;7.38;;;;;;;11.64;100.00;98847.78;4998295;28;20025;-61
2022/05/11 03:49:34;;;;;;;8.20;7.22;;;;;;;11.62;100.00;98841.84;5001997;28;20403;-61
2022/05/11 03:52:01;;;;;;;8.13;7.32;;;;;;;11.63;100.00;98843.50;5002223;28;20060;-61
2022/05/11 03:54:26;;;;;;;7.97;7.28;;;;;;;11.69;100.00;98851.09;5003770;28;20072;-61
2022/05/11 03:56:52;;;;;;;7.70;7.03;;;;;;;11.71;100.00;98844.19;5000695;28;20156;-60
2022/05/11 03:59:17;;;;;;;10.38;7.70;;;;;;;11.83;100.00;98846.59;5004628;28;20453;-60
2022/05/11 04:01:43;;;;;;;6.95;6.28;;;;;;;11.95;100.00;98842.06;5002598;28;20113;-61
2022/05/11 04:04:09;;;;;;;8.73;6.95;;;;;;;12.09;100.00;98845.19;4999664;28;20467;-61
2022/05/11 04:06:34;;;;;;;8.95;8.13;;;;;;;12.28;100.00;98838.75;5002281;28;20026;-61
2022/05/11 04:09:00;;;;;;;8.77;6.70;;;;;;;12.45;100.00;98846.06;5003427;28;20042;-62
2022/05/11 04:11:27;;;;;;;7.45;6.60;;;;;;;12.54;100.00;98836.44;5002560;28;20025;-61
2022/05/11 04:13:53;;;;;;;7.25;6.55;;;;;;;12.68;100.00;98838.69;4998386;28;20042;-61
2022/05/11 04:16:18;;;;;;;7.80;7.03;;;;;;;12.85;100.00;98843.41;4999359;28;20222;-61
2022/05/11 04:18:45;;;;;;;7.40;6.72;;;;;;;12.95;100.00;98842.28;5001406;28;20061;-61
2022/05/11 04:21:11;;;;;;;6.88;5.82;;;;;;;13.10;100.00;98847.94;5002712;28;20041;-61
2022/05/11 04:23:40;;;;;;;7.28;6.18;;;;;;;13.20;100.00;98849.38;4998507;28;20527;-61
2022/05/11 04:26:06;;;;;;;7.55;6.95;;;;;;;13.27;100.00;98855.22;4999798;28;20037;-61
2022/05/11 04:28:32;;;;;;;6.78;6.00;;;;;;;13.31;100.00;98845.69;5003866;28;20041;-61
2022/05/11 04:31:03;;;;;;;7.47;6.75;;;;;;;13.43;100.00;98853.06;5001937;28;20030;-60
2022/05/11 04:33:30;;;;;;;6.32;5.82;;;;;;;13.43;100.00;98853.94;4999424;28;20038;-62
2022/05/11 04:35:55;;;;;;;7.30;6.50;;;;;;;13.53;100.00;98849.38;5000877;28;20608;-61
2022/05/11 04:38:20;;;;;;;6.80;6.20;;;;;;;13.60;100.00;98845.75;5001706;28;20037;-59
2022/05/11 04:40:46;;;;;;;6.45;5.85;;;;;;;13.65;100.00;98857.63;4999631;28;20030;-60
2022/05/11 04:43:11;;;;;;;5.97;5.38;;;;;;;13.74;100.00;98851.34;4981371;28;20061;-59
2022/05/11 04:45:39;;;;;;;6.25;5.75;;;;;;;13.78;100.00;98852.97;5001131;28;20175;-60
2022/05/11 04:48:05;;;;;;;6.70;6.18;;;;;;;13.88;100.00;98856.94;5003724;28;20038;-57
2022/05/11 04:50:31;;;;;;;6.65;6.05;;;;;;;13.98;100.00;98862.69;5000674;28;20595;-56
2022/05/11 04:52:56;;;;;;;6.32;5.78;;;;;;;14.09;100.00;98865.78;4997207;28;20631;-61
2022/05/11 04:55:22;;;;;;;6.55;5.95;;;;;;;14.22;100.00;98856.81;5000656;28;20032;-64
2022/05/11 04:57:48;;;;;;;9.32;6.20;;;;;;;14.32;100.00;98855.66;5001009;28;20048;-62
2022/05/11 05:00:15;;;;;;;6.53;5.90;;;;;;;14.49;100.00;98856.00;4998319;28;20045;-61
2022/05/11 05:02:41;;;;;;;7.35;5.05;;;;;;;14.64;100.00;98865.84;4998168;28;20460;-60
2022/05/11 05:05:09;;;;;;;9.07;6.10;;;;;;;14.77;100.00;98862.84;5004065;28;20041;-62
2022/05/11 05:07:35;;;;;;;6.47;5.28;;;;;;;14.89;100.00;98854.75;5003929;28;20026;-60
2022/05/11 05:10:06;;;;;;;5.97;5.57;;;;;;;14.99;100.00;98856.09;5000108;28;20035;-60
2022/05/11 05:12:31;;;;;;;6.43;5.82;;;;;;;15.12;100.00;98866.88;5000253;28;20064;-61
2022/05/11 05:14:57;;;;;;;6.00;5.40;;;;;;;15.23;100.00;98860.47;5001441;28;20460;-61
2022/05/11 05:17:23;;;;;;;7.45;5.35;;;;;;;15.35;100.00;98862.63;5002244;28;20077;-60
2022/05/11 05:19:49;;;;;;;6.00;5.40;;;;;;;15.46;100.00;98868.25;4998570;28;20880;-61
2022/05/11 05:22:15;;;;;;;5.43;5.03;;;;;;;15.56;100.00;98862.81;4999295;28;20042;-59
2022/05/11 05:24:41;;;;;;;5.70;5.30;;;;;;;15.70;100.00;98868.34;5003868;28;20056;-61
2022/05/11 05:27:06;;;;;;;6.47;4.75;;;;;;;15.80;100.00;98867.94;5001923;28;20041;-61
2022/05/11 05:32:16;;;;;;;5.78;5.38;;;;;;;16.07;100.00;98868.69;4999752;28;20577;-60
2022/05/11 05:34:46;;;;;;;6.45;4.97;;;;;;;16.24;100.00;98875.81;5002074;28;20628;-59
2022/05/11 05:37:13;;;;;;;6.28;5.32;;;;;;;16.36;100.00;98871.00;4999370;28;20049;-62
2022/05/11 05:39:39;;;;;;;5.13;4.80;;;;;;;16.46;100.00;98864.56;4999139;28;20415;-62
2022/05/11 05:42:05;;;;;;;5.65;5.15;;;;;;;16.63;100.00;98871.72;4999212;28;20543;-60
2022/05/11 05:44:32;;;;;;;6.15;5.55;;;;;;;16.75;100.00;98872.97;5002524;28;20029;-61
2022/05/11 05:47:08;;;;;;;11.40;6.20;;;;;;;16.92;100.00;98873.13;5000035;28;20037;-61
2022/05/11 05:49:34;;;;;;;5.53;4.75;;;;;;;17.04;100.00;98864.84;4998864;28;20036;-61
2022/05/11 05:52:02;;;;;;;5.80;5.30;;;;;;;17.20;100.00;98863.31;5001404;28;20899;-60
2022/05/11 05:54:31;;;;;;;5.57;5.18;;;;;;;17.37;100.00;98878.13;5003290;28;20177;-61
2022/05/11 05:56:57;;;;;;;35.45;14.10;;;;;;;17.50;100.00;98868.09;5003318;28;20045;-61
2022/05/11 05:59:23;;;;;;;15.88;8.68;;;;;;;17.70;100.00;98875.88;5004945;28;20054;-61
2022/05/11 06:01:49;;;;;;;7.78;6.75;;;;;;;17.79;100.00;98871.13;5006672;28;20287;-61
2022/05/11 06:04:15;;;;;;;8.38;5.38;;;;;;;17.98;100.00;98875.50;5006062;28;20034;-62
2022/05/11 06:06:40;;;;;;;5.35;4.80;;;;;;;18.02;100.00;98866.66;5001513;28;20037;-61
2022/05/11 06:09:05;;;;;;;6.22;5.63;;;;;;;18.21;100.00;98876.13;5002113;28;20050;-63
2022/05/11 06:11:31;;;;;;;32.63;12.15;;;;;;;18.34;100.00;98870.38;5005799;28;20471;-62
2022/05/11 06:13:57;;;;;;;6.10;5.00;;;;;;;18.42;100.00;98865.66;5003959;28;20387;-62
2022/05/11 06:16:23;;;;;;;5.70;5.25;;;;;;;18.66;96.59;98867.16;5001625;28;20058;-62
2022/05/11 06:18:48;;;;;;;6.45;4.90;;;;;;;18.73;97.70;98867.69;5003344;28;20056;-63
2022/05/11 06:21:14;;;;;;;18.30;6.15;;;;;;;18.94;98.44;98880.47;5005268;28;20041;-62
2022/05/11 06:23:41;;;;;;;148.82;21.73;;;;;;;19.04;97.73;98868.72;5002591;28;20041;-62
2022/05/11 06:26:08;;;;;;;5.40;4.95;;;;;;;19.15;95.80;98871.63;5000902;28;20041;-62
2022/05/11 06:28:42;;;;;;;5.53;5.10;;;;;;;19.22;94.72;98868.72;5004010;28;20396;-62
2022/05/11 06:31:08;;;;;;;5.43;5.03;;;;;;;19.35;92.47;98878.41;5003320;28;20130;-61
2022/05/11 06:33:34;;;;;;;5.40;5.00;;;;;;;19.55;91.48;98872.25;5002914;28;20033;-62
2022/05/11 06:36:00;;;;;;;6.30;5.80;;;;;;;19.68;89.77;98875.91;5002093;28;20065;-63
2022/05/11 06:38:26;;;;;;;5.65;5.15;;;;;;;19.78;91.50;98876.25;5003370;28;20058;-62
2022/05/11 06:40:52;;;;;;;5.57;5.07;;;;;;;19.75;88.31;98876.41;5006658;28;20453;-60
2022/05/11 06:43:18;;;;;;;5.47;4.97;;;;;;;19.97;86.47;98876.97;5003090;28;20041;-62
2022/05/11 06:45:43;;;;;;;5.28;4.82;;;;;;;20.13;86.02;98875.22;5000309;28;20550;-62
2022/05/11 06:48:08;;;;;;;5.97;5.57;;;;;;;20.33;88.21;98872.41;5006077;28;20037;-62
2022/05/11 06:50:34;;;;;;;6.88;5.55;;;;;;;20.44;86.95;98869.22;5004821;28;20034;-62
2022/05/11 06:53:11;;;;;;;5.72;5.25;;;;;;;20.63;85.50;98872.47;5000294;28;20581;-62
2022/05/11 07:01:10;;;;;;;5.30;4.80;;;;;;;20.99;90.46;98864.34;5004038;28;20080;-61
2022/05/11 07:03:35;;;;;;;6.13;5.63;;;;;;;21.18;87.65;98871.97;5002658;28;20411;-61
2022/05/11 07:06:01;;;;;;;5.78;5.20;;;;;;;21.18;83.19;98869.38;5002814;28;20030;-61
2022/05/11 07:08:36;;;;;;;6.53;5.93;;;;;;;21.16;82.83;98866.03;5002992;28;20394;-61
2022/05/11 07:13:47;;;;;;;5.72;5.22;;;;;;;21.49;78.83;98873.63;4979482;28;20556;-60
2022/05/11 07:16:14;;;;;;;5.47;5.03;;;;;;;21.51;79.34;98862.19;5003342;28;20053;-61
2022/05/11 07:18:41;;;;;;;5.43;4.93;;;;;;;21.67;78.30;98872.53;5007649;28;20030;-60
2022/05/11 07:21:07;;;;;;;5.43;5.03;;;;;;;21.75;76.20;98881.59;5001920;28;20033;-61
2022/05/11 07:23:33;;;;;;;6.43;5.82;;;;;;;21.76;77.82;98872.84;4999710;28;20026;-60
2022/05/11 07:25:59;;;;;;;5.60;5.20;;;;;;;21.99;80.24;98879.28;5004262;28;20064;-62
2022/05/11 07:28:24;;;;;;;5.25;4.85;;;;;;;22.09;81.41;98874.34;5004934;28;20049;-63
2022/05/11 07:30:51;;;;;;;5.63;5.15;;;;;;;22.23;78.43;98864.72;5000795;28;20034;-61
2022/05/11 07:33:17;;;;;;;8.77;6.90;;;;;;;22.27;80.41;98870.59;5000922;28;20044;-61
2022/05/11 07:35:43;;;;;;;6.05;5.45;;;;;;;22.33;82.40;98864.97;5004753;28;20383;-61
2022/05/11 07:38:11;;;;;;;5.45;4.90;;;;;;;22.48;80.47;98861.41;5002771;28;20133;-61
2022/05/11 07:40:37;;;;;;;6.00;5.03;;;;;;;22.56;80.14;98860.91;4999106;28;20041;-61
2022/05/11 07:43:03;;;;;;;5.47;4.97;;;;;;;22.68;76.99;98866.19;5000656;28;20120;-61
2022/05/11 07:45:28;;;;;;;5.10;4.70;;;;;;;22.82;71.97;98861.88;5004164;28;20036;-65
2022/05/11 07:47:53;;;;;;;5.93;5.25;;;;;;;22.83;75.04;98856.50;5002351;28;20046;-61
2022/05/11 07:50:19;;;;;;;4.63;4.22;;;;;;;23.13;70.21;98853.66;5000987;28;20030;-61
2022/05/11 07:52:46;;;;;;;7.25;5.07;;;;;;;23.31;68.72;98862.91;5002713;28;20038;-62
2022/05/11 07:55:16;;;;;;;5.18;4.75;;;;;;;23.38;66.54;98856.31;5003400;28;20030;-62
2022/05/11 08:00:26;;;;;;;4.82;4.43;;;;;;;23.73;64.75;98859.19;5000353;28;20164;-61
2022/05/11 08:02:52;;;;;;;5.53;5.03;;;;;;;23.91;63.03;98857.91;5002865;28;20046;-60
2022/05/11 08:05:19;;;;;;;6.90;4.85;;;;;;;23.95;64.04;98855.91;5003475;28;20041;-60
2022/05/11 08:07:48;;;;;;;5.32;4.93;;;;;;;23.99;61.86;98849.53;4999951;28;20034;-61
2022/05/11 08:10:19;;;;;;;6.97;5.13;;;;;;;24.19;59.44;98845.53;4981335;28;20092;-62
2022/05/11 08:12:44;;;;;;;6.40;4.80;;;;;;;24.22;56.29;98851.41;5002316;28;20033;-60
2022/05/11 08:15:12;;;;;;;4.78;4.15;;;;;;;24.40;55.04;98850.06;5005646;28;20423;-63
2022/05/11 08:17:39;;;;;;;8.35;5.95;;;;;;;24.36;54.96;98843.38;4959492;28;20113;-63
2022/05/11 08:20:14;;;;;;;5.53;5.03;;;;;;;24.56;54.63;98853.28;4960509;28;20026;-64
2022/05/11 08:22:40;;;;;;;;;;;;;;;24.53;51.44;98850.00;4965380;28;20035;-64
2022/05/11 08:25:06;;;;;;;4.63;4.32;;;;;;;24.49;49.62;98848.56;4977628;28;20269;-60
2022/05/11 08:27:32;;;;;;;6.38;4.93;;;;;;;24.51;47.84;98849.31;4960727;28;20046;-64
2022/05/11 08:35:29;;;;;;;5.32;4.82;;;;;;;24.60;44.26;98846.03;4962121;28;20038;-63
2022/05/11 08:37:56;;;;;;;6.10;4.45;;;;;;;24.68;46.52;98846.28;4959055;28;20042;-63
2022/05/11 08:40:59;;;;;;;6.07;4.90;;;;;;;24.71;45.68;98842.59;4965341;28;20042;-63
2022/05/11 08:43:28;;;;;;;4.70;4.32;;;;;;;24.75;44.48;98841.44;4963621;28;20054;-63
2022/05/11 08:46:11;;;;;;;5.50;5.07;;;;;;;24.90;45.78;98835.94;4961849;28;20082;-63
2022/05/11 08:49:00;;;;;;;4.82;4.43;;;;;;;24.95;43.96;98840.84;4960627;28;20046;-56
2022/05/11 08:51:37;;;;;;;4.25;3.95;;;;;;;24.82;41.52;98840.88;4961357;28;20470;-59
2022/05/11 08:54:14;;;;;;;4.82;4.47;;;;;;;24.90;39.75;98838.56;4959159;28;20454;-60
2022/05/11 09:00:29;;;;;;;4.63;4.20;;;;;;;25.15;40.30;98832.31;4962084;28;20892;-66
2022/05/11 09:03:10;;;;;;;5.22;4.80;;;;;;;25.28;40.96;98830.44;4959354;28;20042;-61
2022/05/11 09:05:35;;;;;;;4.65;4.35;;;;;;;25.36;40.37;98827.22;4958000;28;20499;-60
2022/05/11 09:08:04;;;;;;;9.45;4.35;;;;;;;25.33;39.87;98823.03;4961714;28;20381;-60
2022/05/11 09:10:35;;;;;;;4.60;4.30;;;;;;;25.18;40.48;98826.00;4963835;28;20026;-60
2022/05/11 09:13:05;;;;;;;4.72;4.30;;;;;;;25.35;41.52;98834.25;4961233;28;20643;-60
2022/05/11 09:15:59;;;;;;;4.88;4.47;;;;;;;25.50;41.88;98831.44;4964842;28;20053;-62
2022/05/11 09:18:31;;;;;;;8.10;5.18;;;;;;;25.52;40.61;98825.09;5000488;28;20046;-61
2022/05/11 09:20:58;;;;;;;5.00;4.63;;;;;;;25.30;40.52;98833.78;5000145;28;20081;-60
2022/05/11 09:23:31;;;;;;;5.03;4.45;;;;;;;25.53;41.28;98832.06;4997265;28;20561;-59
2022/05/11 09:26:05;;;;;;;5.32;4.93;;;;;;;25.63;39.23;98837.44;4999569;28;20091;-60
2022/05/11 09:28:35;;;;;;;4.95;4.65;;;;;;;25.59;39.34;98831.56;5003211;28;20612;-62
2022/05/11 09:31:26;;;;;;;7.57;4.68;;;;;;;25.68;39.59;98830.03;5000897;28;20434;-62
2022/05/11 09:33:58;;;;;;;7.15;5.32;;;;;;;25.90;41.42;98832.66;4991512;28;20045;-60
2022/05/11 09:36:52;;;;;;;5.47;5.00;;;;;;;25.95;40.55;98824.41;5002834;28;20048;-63
2022/05/11 09:39:18;;;;;;;5.18;4.55;;;;;;;26.10;40.23;98826.66;5002863;28;20044;-62
2022/05/11 09:41:49;;;;;;;4.85;4.45;;;;;;;26.35;39.13;98815.88;4978299;28;20030;-62
2022/05/11 09:44:21;;;;;;;4.60;4.28;;;;;;;26.57;39.10;98824.69;4998309;28;20489;-62
2022/05/11 09:46:47;;;;;;;6.03;5.50;;;;;;;26.41;40.28;98819.00;5000832;28;20069;-61
2022/05/11 09:49:15;;;;;;;4.85;4.55;;;;;;;26.62;39.18;98828.63;5001389;28;20037;-62
2022/05/11 09:51:54;;;;;;;5.35;4.85;;;;;;;26.67;38.27;98820.34;4998327;28;20038;-61
2022/05/11 09:54:19;;;;;;;5.85;5.32;;;;;;;26.88;41.88;98813.34;4998316;28;20033;-61
2022/05/11 09:57:04;;;;;;;7.72;5.50;;;;;;;26.78;41.22;98804.50;4999807;28;20038;-62
2022/05/11 09:59:31;;;;;;;7.57;5.57;;;;;;;27.02;38.93;98801.69;4998660;28;20038;-61
2022/05/11 10:02:02;;;;;;;4.97;4.57;;;;;;;27.09;39.40;98805.47;4997145;28;20572;-61
2022/05/11 10:04:38;;;;;;;5.25;4.75;;;;;;;27.14;37.10;98798.03;5001405;28;20098;-62
2022/05/11 10:07:08;;;;;;;5.57;5.18;;;;;;;26.89;39.35;98796.59;5002435;28;20046;-62
2022/05/11 10:09:48;;;;;;;5.15;4.68;;;;;;;27.21;38.27;98789.47;4997058;28;20053;-61
2022/05/11 10:12:17;;;;;;;5.30;4.60;;;;;;;27.08;38.88;98788.84;4997909;28;20034;-61
2022/05/11 10:23:25;;;;;;;4.93;4.53;;;;;;;27.08;36.69;98788.84;5001060;28;20040;-62
2022/05/11 10:26:18;;;;;;;5.13;4.65;;;;;;;26.89;35.42;98786.09;4999566;28;20128;-61
2022/05/11 10:29:17;;;;;;;5.45;4.95;;;;;;;27.07;37.88;98787.19;4996022;28;20065;-61
2022/05/11 10:32:01;;;;;;;10.15;9.15;;;;;;;27.21;37.91;98786.00;4997171;28;20660;-62
2022/05/11 10:34:48;;;;;;;5.93;5.63;;;;;;;27.45;36.69;98777.84;4995797;28;20069;-63
2022/05/11 10:37:27;;;;;;;6.65;6.15;;;;;;;27.63;36.86;98785.00;4999694;28;20069;-61
2022/05/11 10:40:12;;;;;;;5.72;5.22;;;;;;;27.68;39.06;98768.78;5001781;28;20062;-61
2022/05/11 10:42:53;;;;;;;10.05;5.45;;;;;;;27.52;37.17;98779.00;5000196;28;20037;-62
2022/05/11 10:45:58;;;;;;;5.28;4.80;;;;;;;27.73;38.99;98769.25;5000862;28;20061;-64
2022/05/11 10:48:43;;;;;;;5.22;4.85;;;;;;;27.88;37.15;98770.53;5005547;28;20581;-63
2022/05/11 10:51:24;;;;;;;4.93;4.63;;;;;;;27.87;34.46;98768.88;5003074;28;20497;-62
2022/05/11 10:54:19;;;;;;;5.40;5.00;;;;;;;27.75;35.85;98761.22;5001825;28;20029;-63
2022/05/11 10:57:39;;;;;;;5.88;5.32;;;;;;;27.90;37.06;98752.78;5003151;28;20554;-63
2022/05/11 11:00:14;;;;;;;14.32;11.02;;;;;;;27.95;36.43;98753.22;4927323;28;20039;-62
2022/05/11 11:02:57;;;;;;;;;;;;;;;27.73;35.27;98756.06;4942344;28;20469;-62
2022/05/11 11:05:23;;;;;;;4.63;4.28;;;;;;;27.57;33.64;98751.31;4942062;28;19915;-63
2022/05/11 11:08:18;;;;;;;5.53;4.75;;;;;;;27.61;35.85;98752.69;4943984;28;20042;-62
2022/05/11 11:10:57;;;;;;;7.30;4.65;;;;;;;27.67;37.42;98746.88;4932992;28;20444;-63
2022/05/11 11:13:25;;;;;;;6.60;5.95;;;;;;;27.68;37.00;98756.47;4940832;28;20518;-62
2022/05/11 11:15:51;;;;;;;5.38;4.95;;;;;;;27.65;36.62;98754.09;4940250;28;20584;-62
2022/05/11 11:18:29;;;;;;;5.80;5.15;;;;;;;27.63;36.44;98753.38;4941950;28;20657;-62
2022/05/11 11:21:01;;;;;;;5.88;4.88;;;;;;;27.59;35.36;98740.59;4939236;28;20137;-62
2022/05/11 11:23:27;;;;;;;6.15;5.63;;;;;;;27.67;36.83;98744.25;4941259;28;20043;-62
2022/05/11 11:26:08;;;;;;;6.97;5.95;;;;;;;27.82;37.92;98736.81;4941417;28;20032;-63
2022/05/11 11:28:40;;;;;;;6.00;5.20;;;;;;;28.08;38.96;98735.34;4941158;28;20070;-61
2022/05/11 11:31:14;;;;;;;5.90;5.30;;;;;;;28.10;34.64;98736.06;4938104;28;20047;-63
2022/05/11 11:34:06;;;;;;;5.88;5.22;;;;;;;28.15;35.44;98728.56;4943741;28;20626;-63
2022/05/11 11:36:32;;;;;;;5.45;5.00;;;;;;;28.06;35.31;98720.63;4951677;28;20509;-63
2022/05/11 11:39:00;;;;;;;6.03;5.50;;;;;;;28.12;36.82;98712.22;4981983;28;20033;-64
2022/05/11 11:41:52;;;;;;;6.05;5.63;;;;;;;28.31;36.55;98714.00;4982195;28;20042;-63
2022/05/11 11:44:21;;;;;;;5.00;4.53;;;;;;;28.29;35.78;98713.31;4982690;28;20058;-63
2022/05/11 11:46:48;;;;;;;4.65;4.28;;;;;;;28.37;35.97;98710.81;4983557;28;20036;-63
2022/05/11 11:49:16;;;;;;;4.97;4.68;;;;;;;28.56;36.25;98714.28;4984190;28;20041;-63
2022/05/11 11:51:51;;;;;;;5.53;5.13;;;;;;;28.62;33.97;98712.88;4982701;28;20588;-63
2022/05/11 11:54:25;;;;;;;;;;;;;;;28.41;34.29;98702.50;4983780;28;20165;-63
2022/05/11 11:56:52;;;;;;;5.47;5.07;;;;;;;28.41;34.82;98701.66;4983044;28;19964;-63
2022/05/11 11:59:24;;;;;;;5.97;5.45;;;;;;;28.67;34.36;98709.84;4978980;28;20575;-63
2022/05/11 12:01:54;;;;;;;5.75;5.35;;;;;;;28.50;36.25;98698.19;4982839;28;20031;-63
2022/05/11 12:04:39;;;;;;;5.50;4.90;;;;;;;28.78;34.37;98701.78;4984103;28;20509;-63
2022/05/11 12:15:33;;;;;;;5.60;5.18;;;;;;;29.30;33.60;98695.13;4983270;28;20037;-63
2022/05/11 12:17:59;;;;;;;6.28;5.70;;;;;;;29.30;34.77;98687.22;4998570;28;20459;-64
2022/05/11 12:20:25;;;;;;;5.70;5.20;;;;;;;29.50;34.76;98689.63;5002024;28;20046;-62
2022/05/11 12:22:57;;;;;;;5.88;5.40;;;;;;;29.40;34.36;98680.09;5000692;28;20041;-62
2022/05/11 12:25:36;;;;;;;6.13;5.40;;;;;;;29.38;35.99;98676.75;5000485;28;20137;-62
2022/05/11 12:28:18;;;;;;;6.47;5.88;;;;;;;29.33;34.90;98685.09;4999344;28;20034;-62